createdAt,value
2022-12-19T00:00:22.588Z,-0.5
2022-12-19T00:03:52.224Z,-1.2
2022-12-19T00:06:43.907Z,-2.1
2022-12-19T00:09:31.715Z,-2.1
2022-12-19T00:12:20.823Z,-1.5
2022-12-19T00:15:10.619Z,-0.6
2022-12-19T00:17:57.902Z,-0.5
2022-12-19T00:20:45.157Z,-1.5
2022-12-19T00:23:40.099Z,-2.4
2022-12-19T00:26:27.878Z,-1.1
2022-12-19T00:29:16.826Z,-0.1
2022-12-19T00:32:04.242Z,-1.2
2022-12-19T00:34:51.577Z,-2.1
2022-12-19T00:37:38.972Z,-2
2022-12-19T00:40:31.645Z,-0.4
2022-12-19T00:43:19.245Z,-0.5
2022-12-19T00:46:06.624Z,-1.6
2022-12-19T00:48:56.958Z,-2.5
2022-12-19T00:51:45.303Z,-1.9
2022-12-19T00:54:32.964Z,-0.7
2022-12-19T00:57:20.576Z,-0.8
2022-12-19T01:00:08.150Z,-1.6
2022-12-19T01:02:56.858Z,-2.6
2022-12-19T01:05:44.347Z,-2.3
2022-12-19T01:08:31.678Z,-0.8
2022-12-19T01:11:19.456Z,-0.7
2022-12-19T01:15:30.347Z,-2.1
2022-12-19T01:18:17.749Z,-2.7
2022-12-19T01:21:05.115Z,-1.7
2022-12-19T01:23:55.993Z,-0.7
2022-12-19T01:26:43.159Z,-0.8
2022-12-19T01:29:30.447Z,-1.8
2022-12-19T01:32:20.146Z,-2.7
2022-12-19T01:35:13.392Z,-2.6
2022-12-19T01:38:09.048Z,-1.3
2022-12-19T01:40:59.223Z,-0.9
2022-12-19T01:43:49.719Z,-2
2022-12-19T01:46:43.009Z,-2.9
2022-12-19T01:49:33.158Z,-2.6
2022-12-19T01:52:23.878Z,-1.4
2022-12-19T01:55:11.335Z,-0.9
2022-12-19T01:57:59.288Z,-1.8
2022-12-19T02:00:47.473Z,-2.8
2022-12-19T02:03:35.169Z,-2.6
2022-12-19T02:06:23.878Z,-1.6
2022-12-19T02:09:12.457Z,-0.8
2022-12-19T02:12:00.488Z,-1.7
2022-12-19T02:14:48.867Z,-2.6
2022-12-19T02:17:38.954Z,-3
2022-12-19T02:20:39.077Z,-1.9
2022-12-19T02:23:52.939Z,-1.2
2022-12-19T02:27:14.189Z,-2.3
2022-12-19T02:30:43.209Z,-3.3
2022-12-19T02:33:39.942Z,-2.8
2022-12-19T02:36:32.911Z,-1.3
2022-12-19T02:39:32.157Z,-0.6
2022-12-19T02:42:27.254Z,-1.6
2022-12-19T02:45:28.508Z,-2.7
2022-12-19T02:48:24.437Z,-3.2
2022-12-19T02:51:12.486Z,-2.4
2022-12-19T02:53:59.747Z,-1.6
2022-12-19T02:56:47.134Z,-1.7
2022-12-19T02:59:40.035Z,-2.6
2022-12-19T03:02:40.186Z,-3.4
2022-12-19T03:05:39.916Z,-2.6
2022-12-19T03:08:35.361Z,-1.3
2022-12-19T03:11:29.490Z,-1.7
2022-12-19T03:14:20.866Z,-2.6
2022-12-19T03:17:09.774Z,-3.4
2022-12-19T03:19:57.083Z,-3.2
2022-12-19T03:22:44.674Z,-2
2022-12-19T03:25:32.204Z,-1.4
2022-12-19T03:28:20.664Z,-2.1
2022-12-19T03:31:15.923Z,-3.1
2022-12-19T03:34:07.053Z,-3.6
2022-12-19T03:37:00.834Z,-3
2022-12-19T03:39:52.442Z,-2.4
2022-12-19T03:42:43.804Z,-1.5
2022-12-19T03:46:05.110Z,-2.1
2022-12-19T03:48:58.964Z,-3.1
2022-12-19T03:51:46.201Z,-3.5
2022-12-19T03:54:39.290Z,-2.4
2022-12-19T03:57:33.958Z,-1.6
2022-12-19T04:00:27.639Z,-2.1
2022-12-19T04:03:15.975Z,-3
2022-12-19T04:06:06.035Z,-3.7
2022-12-19T04:08:54.807Z,-3.6
2022-12-19T04:11:44.269Z,-3.2
2022-12-19T04:14:36.764Z,-2.4
2022-12-19T04:17:24.971Z,-1.6
2022-12-19T04:20:19.266Z,-2.2
2022-12-19T04:23:10.469Z,-3.1
2022-12-19T04:26:02.930Z,-3.6
2022-12-19T04:28:52.489Z,-2.7
2022-12-19T04:31:43.613Z,-1.9
2022-12-19T04:34:31.826Z,-2.3
2022-12-19T04:37:19.699Z,-3.1
2022-12-19T04:40:07.193Z,-3.8
2022-12-19T04:42:56.356Z,-3.6
2022-12-19T04:45:43.652Z,-3.1
2022-12-19T04:48:31.424Z,-2.8
2022-12-19T04:51:20.744Z,-2.2
2022-12-19T04:54:07.944Z,-1.8
2022-12-19T04:56:55.088Z,-2.1
2022-12-19T04:59:42.452Z,-3
2022-12-19T05:02:30.053Z,-3.6
2022-12-19T05:05:17.655Z,-3
2022-12-19T05:08:05.014Z,-2.3
2022-12-19T05:10:52.295Z,-2.1
2022-12-19T05:13:43.468Z,-1.8
2022-12-19T05:16:30.858Z,-2.5
2022-12-19T05:19:18.338Z,-3.2
2022-12-19T05:22:05.442Z,-3.3
2022-12-19T05:24:52.627Z,-2.8
2022-12-19T05:27:39.798Z,-2.2
2022-12-19T05:30:27.094Z,-1.8
2022-12-19T05:33:14.312Z,-2.5
2022-12-19T05:36:01.521Z,-3.4
2022-12-19T05:38:49.178Z,-3.4
2022-12-19T05:41:36.428Z,-2.9
2022-12-19T05:44:23.712Z,-2.5
2022-12-19T05:47:11.741Z,-2.2
2022-12-19T05:49:58.916Z,-2
2022-12-19T05:52:46.603Z,-1.9
2022-12-19T05:55:34.027Z,-2.5
2022-12-19T05:58:21.304Z,-3.3
2022-12-19T06:01:08.451Z,-3.4
2022-12-19T06:03:57.983Z,-3.2
2022-12-19T06:06:45.270Z,-2.7
2022-12-19T06:09:32.583Z,-2.5
2022-12-19T06:12:20.179Z,-2.4
2022-12-19T06:15:07.531Z,-2.2
2022-12-19T06:17:55.939Z,-2.2
2022-12-19T06:20:43.509Z,-2
2022-12-19T06:23:41.557Z,-1.5
2022-12-19T06:26:29.469Z,-1.7
2022-12-19T06:29:16.767Z,-2.6
2022-12-19T06:32:04.088Z,-3.2
2022-12-19T06:35:04.195Z,-1.8
2022-12-19T06:37:56.604Z,-0.7
2022-12-19T06:40:48.134Z,-1.6
2022-12-19T06:44:07.391Z,-2.7
2022-12-19T06:46:58.179Z,-3.2
2022-12-19T06:49:45.543Z,-1.7
2022-12-19T06:52:33.549Z,-1.1
2022-12-19T06:55:20.961Z,-1.9
2022-12-19T06:58:08.172Z,-2.8
2022-12-19T07:00:55.685Z,-2.7
2022-12-19T07:03:43.005Z,-0.9
2022-12-19T07:06:31.601Z,-0.9
2022-12-19T07:09:19.702Z,-1.9
2022-12-19T07:12:07.208Z,-2.9
2022-12-19T07:14:54.422Z,-2.3
2022-12-19T07:17:41.707Z,-0.7
2022-12-19T07:20:29.017Z,-1
2022-12-19T07:23:19.684Z,-2.1
2022-12-19T07:26:07.442Z,-2.8
2022-12-19T07:28:54.951Z,-1.8
2022-12-19T07:31:42.740Z,-0.7
2022-12-19T07:34:30.185Z,-1.3
2022-12-19T07:37:17.423Z,-2.2
2022-12-19T07:40:05.978Z,-2.7
2022-12-19T07:42:55.369Z,-1.6
2022-12-19T07:45:45.098Z,-0.6
2022-12-19T07:48:32.401Z,-1
2022-12-19T07:51:20.232Z,-1.9
2022-12-19T07:54:07.510Z,-2.6
2022-12-19T07:56:55.020Z,-1
2022-12-19T07:59:42.273Z,0.2
2022-12-19T08:02:29.715Z,-0.6
2022-12-19T08:05:17.693Z,-1.6
2022-12-19T08:08:05.028Z,-2.1
2022-12-19T08:10:53.350Z,-0.2
2022-12-19T08:13:46.137Z,0.1
2022-12-19T08:16:49.323Z,-0.8
2022-12-19T08:19:43.084Z,-1.8
2022-12-19T08:22:30.360Z,-1.6
2022-12-19T08:25:17.764Z,0.4
2022-12-19T08:28:04.923Z,0
2022-12-19T08:30:52.262Z,-0.8
2022-12-19T08:33:37.947Z,-1.6
2022-12-19T08:36:25.556Z,-1.1
2022-12-19T08:39:13.442Z,0.1
2022-12-19T08:42:00.842Z,0.1
2022-12-19T08:44:48.460Z,-0.7
2022-12-19T08:47:35.770Z,-1.4
2022-12-19T08:50:23.031Z,-1.5
2022-12-19T08:53:10.769Z,-0.5
2022-12-19T08:55:58.006Z,0.1
2022-12-19T08:58:48.108Z,-0.3
2022-12-19T09:01:37.099Z,-1
2022-12-19T09:05:57.273Z,-1
2022-12-19T09:08:52.699Z,0.6
2022-12-19T09:11:46.686Z,0.4
2022-12-19T09:14:35.524Z,-0.4
2022-12-19T09:17:22.870Z,-1
2022-12-19T09:20:10.130Z,-0.4
2022-12-19T09:22:57.582Z,0.8
2022-12-19T09:25:44.874Z,0.6
2022-12-19T09:28:32.221Z,-0.1
2022-12-19T09:31:21.300Z,-0.6
2022-12-19T09:34:10.543Z,-0.5
2022-12-19T09:36:57.858Z,0.9
2022-12-19T09:39:45.127Z,1.3
2022-12-19T09:42:40.646Z,0.5
2022-12-19T09:45:41.534Z,-0.2
2022-12-19T09:48:40.148Z,-0.4
2022-12-19T09:51:27.717Z,0.9
2022-12-19T09:54:20.293Z,1.4
2022-12-19T09:57:12.573Z,0.9
2022-12-19T10:00:04.565Z,0.4
2022-12-19T10:02:57.724Z,0
2022-12-19T10:07:11.875Z,0.5
2022-12-19T10:12:34.521Z,1.6
2022-12-19T10:15:44.695Z,0.8
2022-12-19T10:18:41.627Z,0.5
2022-12-19T10:22:15.633Z,0.2
2022-12-19T10:25:25.383Z,0.8
2022-12-19T10:28:25.621Z,1.8
2022-12-19T10:31:27.873Z,1.8
2022-12-19T10:34:21.770Z,1.3
2022-12-19T10:37:27.323Z,1
2022-12-19T10:40:29.022Z,0.8
2022-12-19T10:43:28.650Z,0.7
2022-12-19T10:46:32.098Z,1.1
2022-12-19T10:49:24.871Z,2.1
2022-12-19T10:52:13.040Z,2
2022-12-19T10:55:00.989Z,1.7
2022-12-19T10:58:06.463Z,1.4
2022-12-19T11:01:04.902Z,1.2
2022-12-19T11:03:59.978Z,1
2022-12-19T11:07:20.967Z,0.9
2022-12-19T11:10:43.474Z,0.9
2022-12-19T11:19:40.843Z,3
2022-12-19T11:32:40.317Z,1.5
2022-12-19T11:35:36.961Z,1.4
2022-12-19T11:38:34.310Z,1.3
2022-12-19T11:41:26.992Z,1.2
2022-12-19T11:44:20.317Z,1.5
2022-12-19T11:47:15.344Z,3.3
2022-12-19T11:50:12.484Z,3.2
2022-12-19T11:53:14.593Z,2.6
2022-12-19T11:56:15.864Z,2.2
2022-12-19T11:59:08.189Z,1.9
2022-12-19T12:02:02.725Z,1.6
2022-12-19T12:05:08.516Z,1.4
2022-12-19T12:11:31.020Z,2.3
2022-12-19T12:31:05.688Z,1.7
2022-12-19T12:38:25.848Z,3.1
2022-12-19T12:41:30.347Z,2.7
2022-12-19T12:45:00.486Z,2.3
2022-12-19T12:48:02.664Z,2.1
2022-12-19T12:51:02.812Z,2
2022-12-19T12:53:51.877Z,1.9
2022-12-19T12:56:44.900Z,1.7
2022-12-19T12:59:33.165Z,1.7
2022-12-19T13:02:21.210Z,3.3
2022-12-19T13:05:10.462Z,3.8
2022-12-19T13:08:14.534Z,3.2
2022-12-19T13:11:16.018Z,2.8
2022-12-19T13:14:54.988Z,2.3
2022-12-19T13:18:04.484Z,2
2022-12-19T13:21:00.538Z,1.8
2022-12-19T13:23:51.667Z,1.7
2022-12-19T13:26:58.538Z,2
2022-12-19T13:29:45.840Z,3.9
2022-12-19T13:32:39.415Z,3.8
2022-12-19T13:39:52.108Z,3.2
2022-12-19T13:43:13.312Z,2.2
2022-12-19T13:46:35.983Z,1.9
2022-12-19T13:49:28.835Z,1.7
2022-12-19T13:52:21.046Z,1.9
2022-12-19T13:55:08.264Z,3.7
2022-12-19T13:57:59.202Z,3.7
2022-12-19T14:00:53.718Z,3.2
2022-12-19T14:03:45.998Z,2.7
2022-12-19T14:06:35.232Z,2.3
2022-12-19T14:11:31.691Z,2
2022-12-19T14:17:58.248Z,3.2
2022-12-19T14:22:05.793Z,3.7
2022-12-19T14:26:06.067Z,3
2022-12-19T14:31:18.140Z,2.2
2022-12-19T14:34:43.408Z,1.9
2022-12-19T14:39:21.051Z,1.6
2022-12-19T14:42:18.364Z,3.4
2022-12-19T14:54:15.867Z,4
2022-12-19T14:58:54.064Z,2
2022-12-19T15:01:45.051Z,1.8
2022-12-19T15:04:49.650Z,2.5
2022-12-19T15:07:47.312Z,4.1
2022-12-19T15:11:02.372Z,3.8
2022-12-19T15:14:55.304Z,2.9
2022-12-19T15:18:02.766Z,2.5
2022-12-19T15:21:04.590Z,2.1
2022-12-19T15:23:55.348Z,1.9
2022-12-19T15:26:42.620Z,2.8
2022-12-19T15:29:38.237Z,4.4
2022-12-19T15:32:26.311Z,4
2022-12-19T15:35:13.581Z,3.4
2022-12-19T15:38:02.487Z,2.9
2022-12-19T15:40:49.764Z,2.5
2022-12-19T15:44:03.260Z,2.2
2022-12-19T15:46:59.285Z,2.7
2022-12-19T15:49:48.980Z,4.4
2022-12-19T15:52:36.253Z,4.3
2022-12-19T15:55:23.670Z,3.7
2022-12-19T15:58:14.863Z,3.1
2022-12-19T16:01:02.986Z,3.6
2022-12-19T16:03:50.831Z,5.7
2022-12-19T16:06:40.307Z,5.2
2022-12-19T16:09:27.529Z,4.2
2022-12-19T16:12:14.792Z,3.5
2022-12-19T16:15:04.742Z,4.2
2022-12-19T16:17:59.959Z,5.3
2022-12-19T16:20:48.911Z,4.6
2022-12-19T16:23:36.236Z,3.8
2022-12-19T16:26:23.489Z,3.3
2022-12-19T16:29:20.094Z,4.3
2022-12-19T16:32:11.619Z,5.7
2022-12-19T16:34:59.494Z,5.1
2022-12-19T16:37:46.811Z,4.2
2022-12-19T16:40:34.588Z,3.6
2022-12-19T16:43:21.927Z,4.1
2022-12-19T16:46:15.362Z,5.6
2022-12-19T16:49:04.365Z,5.4
2022-12-19T16:51:58.387Z,4.5
2022-12-19T16:54:45.664Z,4.1
2022-12-19T16:57:34.279Z,5.8
2022-12-19T17:00:22.081Z,6.2
2022-12-19T17:03:09.779Z,5.3
2022-12-19T17:06:12.357Z,4.4
2022-12-19T17:09:02.058Z,5.5
2022-12-19T17:11:49.442Z,6.8
2022-12-19T17:14:40.858Z,6.1
2022-12-19T17:17:28.632Z,4.8
2022-12-19T17:20:15.891Z,5.8
2022-12-19T17:23:06.171Z,7.6
2022-12-19T17:26:00.342Z,6.7
2022-12-19T17:28:48.001Z,5.4
2022-12-19T17:31:35.674Z,5.9
2022-12-19T17:34:24.767Z,7.4
2022-12-19T17:37:15.462Z,6.7
2022-12-19T17:40:03.075Z,5.5
2022-12-19T17:43:01.487Z,6.4
2022-12-19T17:45:48.832Z,7.5
2022-12-19T17:48:37.175Z,6.6
2022-12-19T17:51:24.534Z,5.3
2022-12-19T17:54:11.829Z,6.6
2022-12-19T17:56:59.259Z,7.9
2022-12-19T17:59:46.937Z,6.8
2022-12-19T18:02:34.935Z,5.8
2022-12-19T18:05:23.213Z,7.3
2022-12-19T18:08:14.561Z,7.9
2022-12-19T18:11:09.989Z,6.5
2022-12-19T18:14:05.725Z,6.2
2022-12-19T18:16:53.128Z,7.7
2022-12-19T18:19:41.219Z,7.1
2022-12-19T18:22:28.449Z,5.8
2022-12-19T18:25:15.615Z,7
2022-12-19T18:28:06.313Z,8.4
2022-12-19T18:30:53.807Z,7.2
2022-12-19T18:33:45.703Z,6.2
2022-12-19T18:36:33.894Z,7.6
2022-12-19T18:39:25.256Z,8.2
2022-12-19T18:42:13.604Z,7
2022-12-19T18:45:04.758Z,6
2022-12-19T18:47:54.004Z,7.5
2022-12-19T18:50:44.822Z,8.4
2022-12-19T18:53:35.135Z,7
2022-12-19T18:56:23.210Z,6.2
2022-12-19T18:59:10.589Z,7.7
2022-12-19T19:01:58.060Z,8.4
2022-12-19T19:04:45.466Z,7
2022-12-19T19:07:32.718Z,6.2
2022-12-19T19:10:20.451Z,7.3
2022-12-19T19:13:10.414Z,8.1
2022-12-19T19:15:58.758Z,7.4
2022-12-19T19:18:50.041Z,6.2
2022-12-19T19:21:39.031Z,7
2022-12-19T19:24:27.103Z,8.1
2022-12-19T19:27:14.458Z,7.6
2022-12-19T19:30:02.401Z,6.3
2022-12-19T19:32:53.005Z,6.8
2022-12-19T19:35:43.014Z,8
2022-12-19T19:38:35.689Z,7.5
2022-12-19T19:41:24.454Z,6.4
2022-12-19T19:44:14.195Z,7.4
2022-12-19T19:47:01.503Z,8.3
2022-12-19T19:49:49.061Z,6.9
2022-12-19T19:52:36.275Z,6.8
2022-12-19T19:55:24.002Z,7.9
2022-12-19T19:58:12.395Z,8.1
2022-12-19T20:00:59.790Z,6.8
2022-12-19T20:03:52.987Z,6.5
2022-12-19T20:06:40.561Z,7.1
2022-12-19T20:09:27.703Z,8.3
2022-12-19T20:12:15.274Z,8.2
2022-12-19T20:15:02.571Z,6.7
2022-12-19T20:17:50.792Z,6.8
2022-12-19T20:20:38.001Z,8.1
2022-12-19T20:23:25.490Z,8.3
2022-12-19T20:26:12.994Z,6.6
2022-12-19T20:29:01.522Z,6.7
2022-12-19T20:31:51.047Z,7.6
2022-12-19T20:34:38.501Z,8.3
2022-12-19T20:37:25.864Z,7
2022-12-19T20:40:13.206Z,6.3
2022-12-19T20:43:00.950Z,7.7
2022-12-19T20:45:48.296Z,8.6
2022-12-19T20:48:35.601Z,7.9
2022-12-19T20:51:23.536Z,6.8
2022-12-19T20:54:10.840Z,7.5
2022-12-19T20:56:59.436Z,8
2022-12-19T20:59:46.842Z,8.6
2022-12-19T21:03:00.071Z,7.5
2022-12-19T21:06:04.461Z,6.7
2022-12-19T21:08:53.290Z,8.1
2022-12-19T21:11:41.491Z,8.4
2022-12-19T21:14:29.281Z,7.4
2022-12-19T21:17:16.685Z,7.3
2022-12-19T21:20:04.194Z,8.2
2022-12-19T21:22:53.435Z,8.8
2022-12-19T21:25:41.231Z,7.8
2022-12-19T21:28:28.493Z,7
2022-12-19T21:31:16.569Z,7.6
2022-12-19T21:34:06.232Z,8.6
2022-12-19T21:36:54.665Z,8.4
2022-12-19T21:39:42.009Z,7
2022-12-19T21:42:29.412Z,7.5
2022-12-19T21:45:16.782Z,8.6
2022-12-19T21:48:04.120Z,8.6
2022-12-19T21:50:51.738Z,7.3
2022-12-19T21:53:40.765Z,7.4
2022-12-19T21:56:28.084Z,9
2022-12-19T21:59:17.212Z,8.3
2022-12-19T22:02:04.759Z,7.1
2022-12-19T22:04:55.391Z,8.2
2022-12-19T22:07:42.684Z,9.2
2022-12-19T22:10:29.909Z,8
2022-12-19T22:13:17.168Z,7.3
2022-12-19T22:16:04.677Z,8.9
2022-12-19T22:18:52.802Z,9.1
2022-12-19T22:21:41.029Z,7.5
2022-12-19T22:24:28.705Z,7.1
2022-12-19T22:27:16.109Z,9.2
2022-12-19T22:30:08.742Z,8.8
2022-12-19T22:32:58.989Z,7.5
2022-12-19T22:35:46.373Z,8.1
2022-12-19T22:38:33.866Z,9.7
2022-12-19T22:41:23.699Z,8.6
2022-12-19T22:44:12.122Z,7.2
2022-12-19T22:47:02.457Z,8.5
2022-12-19T22:49:49.754Z,9.1
2022-12-19T22:52:37.272Z,7.9
2022-12-19T22:55:24.736Z,7
2022-12-19T22:58:11.985Z,8.9
2022-12-19T23:00:59.495Z,9
2022-12-19T23:03:51.931Z,7.5
2022-12-19T23:06:41.174Z,8.4
2022-12-19T23:09:28.967Z,9.8
2022-12-19T23:12:16.202Z,8.9
2022-12-19T23:15:04.159Z,7.6
2022-12-19T23:17:52.394Z,8.3
2022-12-19T23:20:39.622Z,9.8
2022-12-19T23:23:28.249Z,8.6
2022-12-19T23:26:16.241Z,7.5
2022-12-19T23:29:06.740Z,9.3
2022-12-19T23:31:57.455Z,9.6
2022-12-19T23:34:44.864Z,7.9
2022-12-19T23:37:32.106Z,8.5
2022-12-19T23:40:19.636Z,9.7
2022-12-19T23:43:07.370Z,8.3
2022-12-19T23:45:54.716Z,7.4
2022-12-19T23:48:42.045Z,9
2022-12-19T23:51:30.242Z,9.7
2022-12-19T23:54:17.725Z,8.4
2022-12-19T23:57:04.995Z,8
2022-12-19T23:59:52.230Z,9.7
